sensor_id;sensor_type;location;lat;lon;timestamp;temperature;humidity
8684;DHT22;4379;59.744;18.206;2024-03-25T00:00:13;-0.50;99.90
8684;DHT22;4379;59.744;18.206;2024-03-25T00:02:40;-0.60;99.90
8684;DHT22;4379;59.744;18.206;2024-03-25T00:05:07;-0.50;99.90
8684;DHT22;4379;59.744;18.206;2024-03-25T00:07:38;-0.60;99.90
8684;DHT22;4379;59.744;18.206;2024-03-25T00:10:05;-0.50;99.90
8684;DHT22;4379;59.744;18.206;2024-03-25T00:12:35;-0.60;99.90
8684;DHT22;4379;59.744;18.206;2024-03-25T00:15:01;-0.60;99.90
8684;DHT22;4379;59.744;18.206;2024-03-25T00:17:27;-0.80;99.90
8684;DHT22;4379;59.744;18.206;2024-03-25T00:19:54;-0.70;99.90
8684;DHT22;4379;59.744;18.206;2024-03-25T00:22:22;-0.70;99.90
8684;DHT22;4379;59.744;18.206;2024-03-25T00:24:51;-0.70;99.90
8684;DHT22;4379;59.744;18.206;2024-03-25T00:27:18;-0.80;99.90
8684;DHT22;4379;59.744;18.206;2024-03-25T00:29:44;-0.70;99.90
8684;DHT22;4379;59.744;18.206;2024-03-25T00:32:10;-0.60;99.90
8684;DHT22;4379;59.744;18.206;2024-03-25T00:34:37;-0.80;99.90
8684;DHT22;4379;59.744;18.206;2024-03-25T00:37:05;-0.70;99.90
8684;DHT22;4379;59.744;18.206;2024-03-25T00:39:31;-0.90;99.90
8684;DHT22;4379;59.744;18.206;2024-03-25T00:42:01;-1.00;99.90
8684;DHT22;4379;59.744;18.206;2024-03-25T00:44:27;-1.10;99.90
8684;DHT22;4379;59.744;18.206;2024-03-25T00:46:54;-0.90;99.90
8684;DHT22;4379;59.744;18.206;2024-03-25T00:49:20;-0.90;99.90
8684;DHT22;4379;59.744;18.206;2024-03-25T00:51:48;-0.80;99.90
8684;DHT22;4379;59.744;18.206;2024-03-25T00:54:14;-1.10;99.90
8684;DHT22;4379;59.744;18.206;2024-03-25T00:56:40;-1.00;99.90
8684;DHT22;4379;59.744;18.206;2024-03-25T00:59:06;-0.90;99.90
8684;DHT22;4379;59.744;18.206;2024-03-25T01:01:33;-1.00;99.90
8684;DHT22;4379;59.744;18.206;2024-03-25T01:04:02;-1.00;99.90
8684;DHT22;4379;59.744;18.206;2024-03-25T01:06:28;-0.90;99.90
8684;DHT22;4379;59.744;18.206;2024-03-25T01:08:57;-1.00;99.90
8684;DHT22;4379;59.744;18.206;2024-03-25T01:11:23;-1.00;99.90
8684;DHT22;4379;59.744;18.206;2024-03-25T01:13:49;-1.00;99.90
8684;DHT22;4379;59.744;18.206;2024-03-25T01:16:16;-0.90;99.90
8684;DHT22;4379;59.744;18.206;2024-03-25T01:18:42;-0.80;99.90
8684;DHT22;4379;59.744;18.206;2024-03-25T01:21:09;-0.90;99.90
8684;DHT22;4379;59.744;18.206;2024-03-25T01:23:35;-1.00;99.90
8684;DHT22;4379;59.744;18.206;2024-03-25T01:26:01;-0.90;99.90
8684;DHT22;4379;59.744;18.206;2024-03-25T01:28:30;-0.80;99.90
8684;DHT22;4379;59.744;18.206;2024-03-25T01:30:56;-0.90;99.90
8684;DHT22;4379;59.744;18.206;2024-03-25T01:33:22;-0.80;99.90
8684;DHT22;4379;59.744;18.206;2024-03-25T01:35:49;-0.90;99.90
8684;DHT22;4379;59.744;18.206;2024-03-25T01:38:15;-1.00;99.90
8684;DHT22;4379;59.744;18.206;2024-03-25T01:40:41;-1.10;99.90
8684;DHT22;4379;59.744;18.206;2024-03-25T01:43:10;-1.10;99.90
8684;DHT22;4379;59.744;18.206;2024-03-25T01:45:36;-1.10;99.90
8684;DHT22;4379;59.744;18.206;2024-03-25T01:48:05;-1.10;99.90
8684;DHT22;4379;59.744;18.206;2024-03-25T01:50:36;-1.10;99.90
8684;DHT22;4379;59.744;18.206;2024-03-25T01:53:03;-1.00;99.90
8684;DHT22;4379;59.744;18.206;2024-03-25T01:55:30;-1.00;99.90
8684;DHT22;4379;59.744;18.206;2024-03-25T01:57:58;-1.10;99.90
8684;DHT22;4379;59.744;18.206;2024-03-25T02:00:25;-1.20;99.90
8684;DHT22;4379;59.744;18.206;2024-03-25T02:02:52;-1.20;99.90
8684;DHT22;4379;59.744;18.206;2024-03-25T02:05:19;-1.20;99.90
8684;DHT22;4379;59.744;18.206;2024-03-25T02:07:46;-1.30;99.90
8684;DHT22;4379;59.744;18.206;2024-03-25T02:10:13;-1.30;99.90
8684;DHT22;4379;59.744;18.206;2024-03-25T02:12:43;-1.40;99.90
8684;DHT22;4379;59.744;18.206;2024-03-25T02:15:10;-1.40;99.90
8684;DHT22;4379;59.744;18.206;2024-03-25T02:17:37;-1.50;99.90
8684;DHT22;4379;59.744;18.206;2024-03-25T02:20:04;-1.60;99.90
8684;DHT22;4379;59.744;18.206;2024-03-25T02:22:36;-1.60;99.90
8684;DHT22;4379;59.744;18.206;2024-03-25T02:25:07;-1.60;99.90
8684;DHT22;4379;59.744;18.206;2024-03-25T02:27:38;-1.40;99.90
8684;DHT22;4379;59.744;18.206;2024-03-25T02:30:11;-1.50;99.90
8684;DHT22;4379;59.744;18.206;2024-03-25T02:32:38;-1.50;99.90
8684;DHT22;4379;59.744;18.206;2024-03-25T02:35:12;-1.40;99.90
8684;DHT22;4379;59.744;18.206;2024-03-25T02:37:40;-1.20;99.90
8684;DHT22;4379;59.744;18.206;2024-03-25T02:40:08;-1.30;99.90
8684;DHT22;4379;59.744;18.206;2024-03-25T02:42:36;-1.40;99.90
8684;DHT22;4379;59.744;18.206;2024-03-25T02:45:02;-1.40;99.90
8684;DHT22;4379;59.744;18.206;2024-03-25T02:47:29;-1.30;99.90
8684;DHT22;4379;59.744;18.206;2024-03-25T02:49:55;-1.40;99.90
8684;DHT22;4379;59.744;18.206;2024-03-25T02:52:22;-1.40;99.90
8684;DHT22;4379;59.744;18.206;2024-03-25T02:54:51;-1.30;99.90
8684;DHT22;4379;59.744;18.206;2024-03-25T02:57:17;-1.40;99.90
8684;DHT22;4379;59.744;18.206;2024-03-25T02:59:43;-1.30;99.90
8684;DHT22;4379;59.744;18.206;2024-03-25T03:02:09;-1.40;99.90
8684;DHT22;4379;59.744;18.206;2024-03-25T03:04:36;-1.30;99.90
8684;DHT22;4379;59.744;18.206;2024-03-25T03:07:02;-1.20;99.90
8684;DHT22;4379;59.744;18.206;2024-03-25T03:09:28;-1.10;99.90
8684;DHT22;4379;59.744;18.206;2024-03-25T03:11:54;-1.20;99.90
8684;DHT22;4379;59.744;18.206;2024-03-25T03:14:20;-1.20;99.90
8684;DHT22;4379;59.744;18.206;2024-03-25T03:16:47;-1.30;99.90
8684;DHT22;4379;59.744;18.206;2024-03-25T03:19:13;-1.20;99.90
8684;DHT22;4379;59.744;18.206;2024-03-25T03:21:39;-1.20;99.90
8684;DHT22;4379;59.744;18.206;2024-03-25T03:24:05;-1.30;99.90
8684;DHT22;4379;59.744;18.206;2024-03-25T03:26:31;-1.20;99.90
8684;DHT22;4379;59.744;18.206;2024-03-25T03:28:59;-1.20;99.90
8684;DHT22;4379;59.744;18.206;2024-03-25T03:31:28;-1.10;99.90
8684;DHT22;4379;59.744;18.206;2024-03-25T03:33:58;-0.90;99.90
8684;DHT22;4379;59.744;18.206;2024-03-25T03:36:24;-1.20;99.90
8684;DHT22;4379;59.744;18.206;2024-03-25T03:39:24;-1.30;99.90
8684;DHT22;4379;59.744;18.206;2024-03-25T03:41:54;-1.30;99.90
8684;DHT22;4379;59.744;18.206;2024-03-25T03:44:20;-1.20;99.90
8684;DHT22;4379;59.744;18.206;2024-03-25T03:47:04;-1.20;99.90
8684;DHT22;4379;59.744;18.206;2024-03-25T03:49:45;-1.00;99.90
8684;DHT22;4379;59.744;18.206;2024-03-25T03:52:38;-1.00;99.90
8684;DHT22;4379;59.744;18.206;2024-03-25T03:56:04;-1.00;99.90
8684;DHT22;4379;59.744;18.206;2024-03-25T03:59:20;-1.00;99.90
8684;DHT22;4379;59.744;18.206;2024-03-25T04:02:27;-0.90;99.90
8684;DHT22;4379;59.744;18.206;2024-03-25T04:05:22;-0.90;99.90
8684;DHT22;4379;59.744;18.206;2024-03-25T04:11:03;-1.00;99.90
8684;DHT22;4379;59.744;18.206;2024-03-25T04:13:36;-1.10;99.90
8684;DHT22;4379;59.744;18.206;2024-03-25T04:16:04;-1.00;99.90
8684;DHT22;4379;59.744;18.206;2024-03-25T04:18:31;-1.00;99.90
8684;DHT22;4379;59.744;18.206;2024-03-25T04:21:19;-0.90;99.90
8684;DHT22;4379;59.744;18.206;2024-03-25T04:24:08;-1.10;99.90
8684;DHT22;4379;59.744;18.206;2024-03-25T04:26:35;-1.10;99.90
8684;DHT22;4379;59.744;18.206;2024-03-25T04:29:05;-1.10;99.90
8684;DHT22;4379;59.744;18.206;2024-03-25T04:31:39;-1.20;99.90
8684;DHT22;4379;59.744;18.206;2024-03-25T04:34:43;-1.10;99.90
8684;DHT22;4379;59.744;18.206;2024-03-25T04:37:30;-1.10;99.90
8684;DHT22;4379;59.744;18.206;2024-03-25T04:40:22;-1.20;99.90
8684;DHT22;4379;59.744;18.206;2024-03-25T04:42:58;-1.20;99.90
8684;DHT22;4379;59.744;18.206;2024-03-25T04:45:32;-1.20;99.90
8684;DHT22;4379;59.744;18.206;2024-03-25T04:55:14;-1.00;99.90
8684;DHT22;4379;59.744;18.206;2024-03-25T04:58:02;-0.90;99.90
8684;DHT22;4379;59.744;18.206;2024-03-25T05:00:40;-0.90;99.90
8684;DHT22;4379;59.744;18.206;2024-03-25T05:03:53;-1.00;99.90
8684;DHT22;4379;59.744;18.206;2024-03-25T05:06:23;-1.00;99.90
8684;DHT22;4379;59.744;18.206;2024-03-25T05:08:49;-1.20;99.90
8684;DHT22;4379;59.744;18.206;2024-03-25T05:11:16;-1.10;99.90
8684;DHT22;4379;59.744;18.206;2024-03-25T05:13:42;-1.20;99.90
8684;DHT22;4379;59.744;18.206;2024-03-25T05:16:08;-1.10;99.90
8684;DHT22;4379;59.744;18.206;2024-03-25T05:18:34;-1.00;99.90
8684;DHT22;4379;59.744;18.206;2024-03-25T05:21:00;-0.90;99.90
8684;DHT22;4379;59.744;18.206;2024-03-25T05:23:26;-0.90;99.90
8684;DHT22;4379;59.744;18.206;2024-03-25T05:25:52;-0.90;99.90
8684;DHT22;4379;59.744;18.206;2024-03-25T05:28:18;-0.90;99.90
8684;DHT22;4379;59.744;18.206;2024-03-25T05:30:44;-0.80;99.90
8684;DHT22;4379;59.744;18.206;2024-03-25T05:33:11;-0.70;99.90
8684;DHT22;4379;59.744;18.206;2024-03-25T05:35:37;-0.60;99.90
8684;DHT22;4379;59.744;18.206;2024-03-25T05:38:03;-0.50;99.90
8684;DHT22;4379;59.744;18.206;2024-03-25T05:40:32;-0.60;99.90
8684;DHT22;4379;59.744;18.206;2024-03-25T05:42:58;-0.70;99.90
8684;DHT22;4379;59.744;18.206;2024-03-25T05:45:24;-0.50;99.90
8684;DHT22;4379;59.744;18.206;2024-03-25T05:47:51;-0.50;99.90
8684;DHT22;4379;59.744;18.206;2024-03-25T05:50:17;-0.40;99.90
8684;DHT22;4379;59.744;18.206;2024-03-25T05:52:43;-0.60;99.90
8684;DHT22;4379;59.744;18.206;2024-03-25T05:55:10;-0.70;99.90
8684;DHT22;4379;59.744;18.206;2024-03-25T05:57:36;-0.50;99.90
8684;DHT22;4379;59.744;18.206;2024-03-25T06:00:03;-0.30;99.90
8684;DHT22;4379;59.744;18.206;2024-03-25T06:02:29;-0.20;99.90
8684;DHT22;4379;59.744;18.206;2024-03-25T06:04:59;-0.20;99.90
8684;DHT22;4379;59.744;18.206;2024-03-25T06:07:25;0.00;99.90
8684;DHT22;4379;59.744;18.206;2024-03-25T06:09:51;0.20;99.90
8684;DHT22;4379;59.744;18.206;2024-03-25T06:12:17;0.40;99.90
8684;DHT22;4379;59.744;18.206;2024-03-25T06:14:43;0.70;99.90
8684;DHT22;4379;59.744;18.206;2024-03-25T06:17:10;0.30;99.90
8684;DHT22;4379;59.744;18.206;2024-03-25T06:19:37;0.70;99.90
8684;DHT22;4379;59.744;18.206;2024-03-25T06:22:03;0.80;99.90
8684;DHT22;4379;59.744;18.206;2024-03-25T06:24:30;1.10;99.90
8684;DHT22;4379;59.744;18.206;2024-03-25T06:26:56;1.20;99.90
8684;DHT22;4379;59.744;18.206;2024-03-25T06:29:25;0.80;99.90
8684;DHT22;4379;59.744;18.206;2024-03-25T06:31:51;0.90;99.90
8684;DHT22;4379;59.744;18.206;2024-03-25T06:34:36;1.00;99.90
8684;DHT22;4379;59.744;18.206;2024-03-25T06:37:02;0.80;99.90
8684;DHT22;4379;59.744;18.206;2024-03-25T06:39:30;0.80;99.90
8684;DHT22;4379;59.744;18.206;2024-03-25T06:41:57;0.40;99.90
8684;DHT22;4379;59.744;18.206;2024-03-25T06:44:23;0.20;99.90
8684;DHT22;4379;59.744;18.206;2024-03-25T06:46:50;0.20;99.90
8684;DHT22;4379;59.744;18.206;2024-03-25T06:49:16;0.10;99.90
8684;DHT22;4379;59.744;18.206;2024-03-25T06:51:42;0.00;99.90
8684;DHT22;4379;59.744;18.206;2024-03-25T06:54:08;0.10;99.90
8684;DHT22;4379;59.744;18.206;2024-03-25T06:56:34;0.10;99.90
8684;DHT22;4379;59.744;18.206;2024-03-25T06:59:01;0.00;99.90
8684;DHT22;4379;59.744;18.206;2024-03-25T07:01:27;0.20;99.90
8684;DHT22;4379;59.744;18.206;2024-03-25T07:03:53;0.30;99.90
8684;DHT22;4379;59.744;18.206;2024-03-25T07:06:20;0.60;99.90
8684;DHT22;4379;59.744;18.206;2024-03-25T07:08:46;0.90;99.90
8684;DHT22;4379;59.744;18.206;2024-03-25T07:11:14;1.10;99.90
8684;DHT22;4379;59.744;18.206;2024-03-25T07:13:40;0.80;99.90
8684;DHT22;4379;59.744;18.206;2024-03-25T07:16:08;0.70;99.90
8684;DHT22;4379;59.744;18.206;2024-03-25T07:18:35;0.50;99.90
8684;DHT22;4379;59.744;18.206;2024-03-25T07:21:09;0.50;99.90
8684;DHT22;4379;59.744;18.206;2024-03-25T07:23:35;0.50;99.90
8684;DHT22;4379;59.744;18.206;2024-03-25T07:26:01;0.60;99.90
8684;DHT22;4379;59.744;18.206;2024-03-25T07:28:27;0.60;99.90
8684;DHT22;4379;59.744;18.206;2024-03-25T07:30:53;1.10;99.90
8684;DHT22;4379;59.744;18.206;2024-03-25T07:33:19;1.70;99.90
8684;DHT22;4379;59.744;18.206;2024-03-25T07:35:45;2.50;99.90
8684;DHT22;4379;59.744;18.206;2024-03-25T07:38:15;2.40;99.90
8684;DHT22;4379;59.744;18.206;2024-03-25T07:40:41;2.50;99.90
8684;DHT22;4379;59.744;18.206;2024-03-25T07:43:07;3.10;99.90
8684;DHT22;4379;59.744;18.206;2024-03-25T07:45:34;3.70;99.90
8684;DHT22;4379;59.744;18.206;2024-03-25T07:48:00;4.40;99.90
8684;DHT22;4379;59.744;18.206;2024-03-25T07:50:26;4.00;99.90
8684;DHT22;4379;59.744;18.206;2024-03-25T07:52:52;3.20;99.90
8684;DHT22;4379;59.744;18.206;2024-03-25T07:55:18;2.70;99.90
8684;DHT22;4379;59.744;18.206;2024-03-25T07:57:45;3.30;99.90
8684;DHT22;4379;59.744;18.206;2024-03-25T08:00:11;3.40;99.90
8684;DHT22;4379;59.744;18.206;2024-03-25T08:02:38;3.60;99.90
8684;DHT22;4379;59.744;18.206;2024-03-25T08:05:04;4.20;99.90
8684;DHT22;4379;59.744;18.206;2024-03-25T08:07:31;3.70;99.90
8684;DHT22;4379;59.744;18.206;2024-03-25T08:09:58;3.50;99.90
8684;DHT22;4379;59.744;18.206;2024-03-25T08:12:24;2.70;99.90
8684;DHT22;4379;59.744;18.206;2024-03-25T08:14:53;2.90;99.90
8684;DHT22;4379;59.744;18.206;2024-03-25T08:17:21;2.30;99.90
8684;DHT22;4379;59.744;18.206;2024-03-25T08:19:47;2.10;99.90
8684;DHT22;4379;59.744;18.206;2024-03-25T08:22:13;2.50;99.90
8684;DHT22;4379;59.744;18.206;2024-03-25T08:24:40;3.00;99.90
8684;DHT22;4379;59.744;18.206;2024-03-25T08:27:06;3.40;99.90
8684;DHT22;4379;59.744;18.206;2024-03-25T08:29:32;3.00;99.90
8684;DHT22;4379;59.744;18.206;2024-03-25T08:31:58;3.10;99.90
8684;DHT22;4379;59.744;18.206;2024-03-25T08:34:24;3.10;99.90
8684;DHT22;4379;59.744;18.206;2024-03-25T08:36:51;3.10;99.90
8684;DHT22;4379;59.744;18.206;2024-03-25T08:39:17;2.90;99.90
8684;DHT22;4379;59.744;18.206;2024-03-25T08:41:43;3.10;99.90
8684;DHT22;4379;59.744;18.206;2024-03-25T08:44:10;3.80;99.90
8684;DHT22;4379;59.744;18.206;2024-03-25T08:46:36;5.40;99.90
8684;DHT22;4379;59.744;18.206;2024-03-25T08:49:04;5.40;99.90
8684;DHT22;4379;59.744;18.206;2024-03-25T08:51:30;4.90;99.90
8684;DHT22;4379;59.744;18.206;2024-03-25T08:53:56;5.00;99.90
8684;DHT22;4379;59.744;18.206;2024-03-25T08:56:22;4.30;99.90
8684;DHT22;4379;59.744;18.206;2024-03-25T08:58:49;4.20;99.90
8684;DHT22;4379;59.744;18.206;2024-03-25T09:01:15;5.00;99.90
8684;DHT22;4379;59.744;18.206;2024-03-25T09:03:41;5.80;99.90
8684;DHT22;4379;59.744;18.206;2024-03-25T09:06:08;8.70;99.90
8684;DHT22;4379;59.744;18.206;2024-03-25T09:08:34;10.90;99.90
8684;DHT22;4379;59.744;18.206;2024-03-25T09:11:20;9.30;99.90
8684;DHT22;4379;59.744;18.206;2024-03-25T09:13:46;9.30;99.90
8684;DHT22;4379;59.744;18.206;2024-03-25T09:16:12;9.80;99.90
8684;DHT22;4379;59.744;18.206;2024-03-25T09:18:38;10.70;99.90
8684;DHT22;4379;59.744;18.206;2024-03-25T09:21:04;10.30;99.90
8684;DHT22;4379;59.744;18.206;2024-03-25T09:23:31;11.10;99.90
8684;DHT22;4379;59.744;18.206;2024-03-25T09:25:58;10.90;99.90
8684;DHT22;4379;59.744;18.206;2024-03-25T09:28:25;10.10;99.90
8684;DHT22;4379;59.744;18.206;2024-03-25T09:30:51;10.00;99.90
8684;DHT22;4379;59.744;18.206;2024-03-25T09:33:17;8.90;99.90
8684;DHT22;4379;59.744;18.206;2024-03-25T09:35:43;6.80;99.90
8684;DHT22;4379;59.744;18.206;2024-03-25T09:38:10;5.80;99.90
8684;DHT22;4379;59.744;18.206;2024-03-25T09:40:40;6.40;99.90
8684;DHT22;4379;59.744;18.206;2024-03-25T09:43:14;6.60;99.90
8684;DHT22;4379;59.744;18.206;2024-03-25T09:45:44;6.20;99.90
8684;DHT22;4379;59.744;18.206;2024-03-25T09:48:21;6.10;99.90
8684;DHT22;4379;59.744;18.206;2024-03-25T09:50:52;5.60;99.90
8684;DHT22;4379;59.744;18.206;2024-03-25T09:53:18;6.10;99.90
8684;DHT22;4379;59.744;18.206;2024-03-25T09:55:47;5.10;99.90
8684;DHT22;4379;59.744;18.206;2024-03-25T09:58:14;4.50;99.90
8684;DHT22;4379;59.744;18.206;2024-03-25T10:00:41;4.60;99.90
8684;DHT22;4379;59.744;18.206;2024-03-25T10:03:07;4.80;99.90
8684;DHT22;4379;59.744;18.206;2024-03-25T10:05:33;5.10;99.90
8684;DHT22;4379;59.744;18.206;2024-03-25T10:08:00;5.10;99.90
8684;DHT22;4379;59.744;18.206;2024-03-25T10:10:26;4.40;99.90
8684;DHT22;4379;59.744;18.206;2024-03-25T10:12:55;4.50;99.90
8684;DHT22;4379;59.744;18.206;2024-03-25T10:15:22;4.70;99.90
8684;DHT22;4379;59.744;18.206;2024-03-25T10:17:52;5.10;99.90
8684;DHT22;4379;59.744;18.206;2024-03-25T10:20:18;5.00;99.90
8684;DHT22;4379;59.744;18.206;2024-03-25T10:22:45;5.10;99.90
8684;DHT22;4379;59.744;18.206;2024-03-25T10:25:29;4.90;99.90
8684;DHT22;4379;59.744;18.206;2024-03-25T10:27:59;5.20;99.90
8684;DHT22;4379;59.744;18.206;2024-03-25T10:30:29;5.50;99.90
8684;DHT22;4379;59.744;18.206;2024-03-25T10:32:59;5.10;99.90
8684;DHT22;4379;59.744;18.206;2024-03-25T10:35:32;5.60;99.90
8684;DHT22;4379;59.744;18.206;2024-03-25T10:38:01;5.20;99.90
8684;DHT22;4379;59.744;18.206;2024-03-25T10:40:29;5.60;99.90
8684;DHT22;4379;59.744;18.206;2024-03-25T10:45:28;5.50;99.90
8684;DHT22;4379;59.744;18.206;2024-03-25T10:47:59;5.80;99.90
8684;DHT22;4379;59.744;18.206;2024-03-25T10:50:31;5.20;99.90
8684;DHT22;4379;59.744;18.206;2024-03-25T10:53:02;4.80;99.90
8684;DHT22;4379;59.744;18.206;2024-03-25T10:55:31;5.10;99.90
8684;DHT22;4379;59.744;18.206;2024-03-25T10:58:01;5.00;99.90
8684;DHT22;4379;59.744;18.206;2024-03-25T11:00:29;5.20;99.90
8684;DHT22;4379;59.744;18.206;2024-03-25T11:02:55;4.70;99.90
8684;DHT22;4379;59.744;18.206;2024-03-25T11:05:23;5.20;99.90
8684;DHT22;4379;59.744;18.206;2024-03-25T11:07:49;5.10;99.90
8684;DHT22;4379;59.744;18.206;2024-03-25T11:10:16;5.60;99.90
8684;DHT22;4379;59.744;18.206;2024-03-25T11:12:42;5.70;99.90
8684;DHT22;4379;59.744;18.206;2024-03-25T11:15:09;5.30;99.90
8684;DHT22;4379;59.744;18.206;2024-03-25T11:17:36;5.30;99.90
8684;DHT22;4379;59.744;18.206;2024-03-25T11:20:10;4.70;99.90
8684;DHT22;4379;59.744;18.206;2024-03-25T11:22:52;4.10;99.90
8684;DHT22;4379;59.744;18.206;2024-03-25T11:25:20;4.10;99.90
8684;DHT22;4379;59.744;18.206;2024-03-25T11:27:47;4.00;99.90
8684;DHT22;4379;59.744;18.206;2024-03-25T11:30:14;4.10;99.90
8684;DHT22;4379;59.744;18.206;2024-03-25T11:32:53;4.50;99.90
8684;DHT22;4379;59.744;18.206;2024-03-25T11:35:22;4.40;99.90
8684;DHT22;4379;59.744;18.206;2024-03-25T11:37:48;4.20;99.90
8684;DHT22;4379;59.744;18.206;2024-03-25T11:40:16;4.90;99.90
8684;DHT22;4379;59.744;18.206;2024-03-25T11:42:43;4.70;99.90
8684;DHT22;4379;59.744;18.206;2024-03-25T11:45:17;5.10;99.90
8684;DHT22;4379;59.744;18.206;2024-03-25T11:47:45;5.10;99.90
8684;DHT22;4379;59.744;18.206;2024-03-25T11:50:16;4.80;99.90
8684;DHT22;4379;59.744;18.206;2024-03-25T11:52:42;4.40;99.90
8684;DHT22;4379;59.744;18.206;2024-03-25T11:55:09;3.80;99.90
8684;DHT22;4379;59.744;18.206;2024-03-25T11:57:37;4.00;99.90
8684;DHT22;4379;59.744;18.206;2024-03-25T12:00:04;4.10;99.90
8684;DHT22;4379;59.744;18.206;2024-03-25T12:02:37;4.20;99.90
8684;DHT22;4379;59.744;18.206;2024-03-25T12:05:06;4.70;99.90
8684;DHT22;4379;59.744;18.206;2024-03-25T12:07:33;4.90;99.90
8684;DHT22;4379;59.744;18.206;2024-03-25T12:10:05;4.70;99.90
8684;DHT22;4379;59.744;18.206;2024-03-25T12:12:49;4.70;99.90
8684;DHT22;4379;59.744;18.206;2024-03-25T12:15:17;4.80;99.90
8684;DHT22;4379;59.744;18.206;2024-03-25T12:17:43;4.80;99.90
8684;DHT22;4379;59.744;18.206;2024-03-25T12:20:10;5.20;99.90
8684;DHT22;4379;59.744;18.206;2024-03-25T12:22:44;5.10;99.90
8684;DHT22;4379;59.744;18.206;2024-03-25T12:25:11;4.80;99.90
8684;DHT22;4379;59.744;18.206;2024-03-25T12:27:38;5.00;99.90
8684;DHT22;4379;59.744;18.206;2024-03-25T12:30:08;5.20;99.90
8684;DHT22;4379;59.744;18.206;2024-03-25T12:32:40;4.80;99.90
8684;DHT22;4379;59.744;18.206;2024-03-25T12:35:17;4.60;99.90
8684;DHT22;4379;59.744;18.206;2024-03-25T12:37:45;3.90;99.90
8684;DHT22;4379;59.744;18.206;2024-03-25T12:40:28;4.10;99.90
8684;DHT22;4379;59.744;18.206;2024-03-25T12:42:57;4.40;99.90
8684;DHT22;4379;59.744;18.206;2024-03-25T12:45:23;4.30;99.90
8684;DHT22;4379;59.744;18.206;2024-03-25T12:47:53;4.20;99.90
8684;DHT22;4379;59.744;18.206;2024-03-25T12:50:21;4.30;99.90
8684;DHT22;4379;59.744;18.206;2024-03-25T12:52:49;3.80;99.90
8684;DHT22;4379;59.744;18.206;2024-03-25T12:55:18;3.70;99.90
8684;DHT22;4379;59.744;18.206;2024-03-25T12:57:45;3.90;99.90
8684;DHT22;4379;59.744;18.206;2024-03-25T13:00:11;3.70;99.90
8684;DHT22;4379;59.744;18.206;2024-03-25T13:02:38;3.50;99.90
8684;DHT22;4379;59.744;18.206;2024-03-25T13:05:04;3.80;99.90
8684;DHT22;4379;59.744;18.206;2024-03-25T13:07:31;3.50;99.90
8684;DHT22;4379;59.744;18.206;2024-03-25T13:09:57;3.50;99.90
8684;DHT22;4379;59.744;18.206;2024-03-25T13:12:25;3.60;99.90
8684;DHT22;4379;59.744;18.206;2024-03-25T13:14:55;3.60;99.90
8684;DHT22;4379;59.744;18.206;2024-03-25T13:17:21;3.60;99.90
8684;DHT22;4379;59.744;18.206;2024-03-25T13:19:48;3.60;99.90
8684;DHT22;4379;59.744;18.206;2024-03-25T13:22:14;3.50;99.90
8684;DHT22;4379;59.744;18.206;2024-03-25T13:24:40;3.70;99.90
8684;DHT22;4379;59.744;18.206;2024-03-25T13:27:07;3.90;99.90
8684;DHT22;4379;59.744;18.206;2024-03-25T13:29:33;4.00;99.90
8684;DHT22;4379;59.744;18.206;2024-03-25T13:32:02;3.60;99.90
8684;DHT22;4379;59.744;18.206;2024-03-25T13:34:35;3.50;99.90
8684;DHT22;4379;59.744;18.206;2024-03-25T13:37:01;3.80;99.90
8684;DHT22;4379;59.744;18.206;2024-03-25T13:39:27;3.60;99.90
8684;DHT22;4379;59.744;18.206;2024-03-25T13:41:53;3.60;99.90
8684;DHT22;4379;59.744;18.206;2024-03-25T13:44:19;3.60;99.90
8684;DHT22;4379;59.744;18.206;2024-03-25T13:46:45;3.50;99.90
8684;DHT22;4379;59.744;18.206;2024-03-25T13:49:11;3.60;99.90
8684;DHT22;4379;59.744;18.206;2024-03-25T13:51:38;3.30;99.90
8684;DHT22;4379;59.744;18.206;2024-03-25T13:54:07;3.40;99.90
8684;DHT22;4379;59.744;18.206;2024-03-25T13:56:33;3.30;99.90
8684;DHT22;4379;59.744;18.206;2024-03-25T13:58:59;3.40;99.90
8684;DHT22;4379;59.744;18.206;2024-03-25T14:01:25;3.40;99.90
8684;DHT22;4379;59.744;18.206;2024-03-25T14:03:53;3.50;99.90
8684;DHT22;4379;59.744;18.206;2024-03-25T14:06:19;3.40;99.90
8684;DHT22;4379;59.744;18.206;2024-03-25T14:08:46;3.40;99.90
8684;DHT22;4379;59.744;18.206;2024-03-25T14:11:12;3.60;99.90
8684;DHT22;4379;59.744;18.206;2024-03-25T14:13:41;3.50;99.90
8684;DHT22;4379;59.744;18.206;2024-03-25T14:16:07;3.40;99.90
8684;DHT22;4379;59.744;18.206;2024-03-25T14:18:33;3.20;99.90
8684;DHT22;4379;59.744;18.206;2024-03-25T14:20:59;2.90;99.90
8684;DHT22;4379;59.744;18.206;2024-03-25T14:23:28;2.80;99.90
8684;DHT22;4379;59.744;18.206;2024-03-25T14:25:57;2.90;99.90
8684;DHT22;4379;59.744;18.206;2024-03-25T14:28:24;2.90;99.90
8684;DHT22;4379;59.744;18.206;2024-03-25T14:30:50;2.90;99.90
8684;DHT22;4379;59.744;18.206;2024-03-25T14:33:17;2.70;99.90
8684;DHT22;4379;59.744;18.206;2024-03-25T14:35:43;2.70;99.90
8684;DHT22;4379;59.744;18.206;2024-03-25T14:38:09;2.50;99.90
8684;DHT22;4379;59.744;18.206;2024-03-25T14:40:39;2.40;99.90
8684;DHT22;4379;59.744;18.206;2024-03-25T14:43:05;2.40;99.90
8684;DHT22;4379;59.744;18.206;2024-03-25T14:45:31;2.40;99.90
8684;DHT22;4379;59.744;18.206;2024-03-25T14:47:57;2.30;99.90
8684;DHT22;4379;59.744;18.206;2024-03-25T14:50:26;2.50;99.90
8684;DHT22;4379;59.744;18.206;2024-03-25T14:52:52;2.40;99.90
8684;DHT22;4379;59.744;18.206;2024-03-25T14:55:19;2.40;99.90
8684;DHT22;4379;59.744;18.206;2024-03-25T14:57:45;2.60;99.90
8684;DHT22;4379;59.744;18.206;2024-03-25T15:00:12;2.60;99.90
8684;DHT22;4379;59.744;18.206;2024-03-25T15:02:41;2.40;99.90
8684;DHT22;4379;59.744;18.206;2024-03-25T15:05:07;2.30;99.90
8684;DHT22;4379;59.744;18.206;2024-03-25T15:07:34;2.20;99.90
8684;DHT22;4379;59.744;18.206;2024-03-25T15:10:00;2.40;99.90
8684;DHT22;4379;59.744;18.206;2024-03-25T15:12:26;2.40;99.90
8684;DHT22;4379;59.744;18.206;2024-03-25T15:14:53;2.30;99.90
8684;DHT22;4379;59.744;18.206;2024-03-25T15:17:19;2.30;99.90
8684;DHT22;4379;59.744;18.206;2024-03-25T15:19:45;2.20;99.90
8684;DHT22;4379;59.744;18.206;2024-03-25T15:22:11;2.30;99.90
8684;DHT22;4379;59.744;18.206;2024-03-25T15:24:37;2.20;99.90
8684;DHT22;4379;59.744;18.206;2024-03-25T15:27:04;2.10;99.90
8684;DHT22;4379;59.744;18.206;2024-03-25T15:29:31;2.00;99.90
8684;DHT22;4379;59.744;18.206;2024-03-25T15:31:57;1.90;99.90
8684;DHT22;4379;59.744;18.206;2024-03-25T15:34:26;1.80;99.90
8684;DHT22;4379;59.744;18.206;2024-03-25T15:36:52;1.70;99.90
8684;DHT22;4379;59.744;18.206;2024-03-25T15:39:19;1.70;99.90
8684;DHT22;4379;59.744;18.206;2024-03-25T15:41:45;1.70;99.90
8684;DHT22;4379;59.744;18.206;2024-03-25T15:44:14;1.70;99.90
8684;DHT22;4379;59.744;18.206;2024-03-25T15:46:42;1.80;99.90
8684;DHT22;4379;59.744;18.206;2024-03-25T15:49:08;1.80;99.90
8684;DHT22;4379;59.744;18.206;2024-03-25T15:51:35;1.70;99.90
8684;DHT22;4379;59.744;18.206;2024-03-25T15:54:01;1.60;99.90
8684;DHT22;4379;59.744;18.206;2024-03-25T15:56:27;1.60;99.90
8684;DHT22;4379;59.744;18.206;2024-03-25T15:58:53;1.70;99.90
8684;DHT22;4379;59.744;18.206;2024-03-25T16:01:21;1.70;99.90
8684;DHT22;4379;59.744;18.206;2024-03-25T16:03:47;1.70;99.90
8684;DHT22;4379;59.744;18.206;2024-03-25T16:06:14;1.70;99.90
8684;DHT22;4379;59.744;18.206;2024-03-25T16:08:43;1.60;99.90
8684;DHT22;4379;59.744;18.206;2024-03-25T16:11:17;1.50;99.90
8684;DHT22;4379;59.744;18.206;2024-03-25T16:13:46;1.40;99.90
8684;DHT22;4379;59.744;18.206;2024-03-25T16:16:16;1.30;99.90